Point O Woods, Connecticut
Current Conditions -  °F | °C
As of 4:56 AM on Saturday 20 Dec 2014 (Local Time) from KGON Reporting Station
Clear Clear  
Wind Chill: 19°   Ceiling: Unl
Heat Index: 25°   Visibility: 7mi
Dew Point: 20°   Wind: 5mph
Humidity: 81%   Direction: 350°N
Pressure: 30.2"   Gusts: NA
Location:  41.2916°N, 72.2579°W
Report Text: KGON 200956Z AUTO 35004KT 7SM CLR M04/M07 A3020 RMK AO2 SLP227 T10391067
Loading
Personal Weather Stations






























Interactive Weather Map New forecast layout! Learn more

10-Day Weather Forecast

Advertisements
Track Severe Weather on mobile